Time;durP1;ratioP1;P1;durP2;ratioP2;P2;SDS_P1;SDS_P2;PMS_P1;PMS_P2;Temp;Humidity;BMP_temperature;BMP_pressure;BME280_temperature;BME280_humidity;BME280_pressure;Samples;Min_cycle;Max_cycle;Signal;HPM_P1;HPM_P2
2022/03/28 00:00:20;;;;;;;5.07;4.30;;;13.00;99.90;;;13.56;nan;101580.47;5021350;28;20664;-70
2022/03/28 00:02:47;;;;;;;7.53;4.80;;;13.00;99.90;;;13.51;nan;101585.19;5012925;23;20696;-71
2022/03/28 00:05:14;;;;;;;8.97;5.90;;;12.90;99.90;;;13.48;nan;101576.69;5030715;28;20628;-68
2022/03/28 00:07:42;;;;;;;7.27;5.47;;;12.90;99.90;;;13.41;nan;101572.81;5012575;28;20637;-71
2022/03/28 00:10:11;;;;;;;9.23;6.93;;;12.80;99.90;;;13.35;nan;101575.84;4995068;28;21045;-71
2022/03/28 00:12:41;;;;;;;9.00;6.33;;;12.80;99.90;;;13.33;nan;101569.88;5070537;23;20692;-71
2022/03/28 00:15:09;;;;;;;9.97;6.47;;;12.70;99.90;;;13.28;nan;101564.94;5032162;28;20627;-71
2022/03/28 00:17:37;;;;;;;10.13;6.03;;;12.70;99.90;;;13.28;nan;101570.19;5014420;28;20632;-71
2022/03/28 00:20:06;;;;;;;10.60;6.37;;;12.70;99.90;;;13.26;nan;101563.38;4982171;28;20681;-71
2022/03/28 00:22:33;;;;;;;8.37;4.90;;;12.70;99.90;;;13.19;nan;101558.56;5003491;28;21105;-71
2022/03/28 00:25:00;;;;;;;7.67;5.40;;;12.60;99.90;;;13.20;nan;101554.97;5000814;28;20862;-71
2022/03/28 00:27:27;;;;;;;9.60;6.27;;;12.60;99.90;;;13.17;nan;101559.59;4994363;28;21010;-73
2022/03/28 00:29:54;;;;;;;8.50;5.07;;;12.60;99.90;;;13.18;nan;101561.28;4976490;28;20988;-72
2022/03/28 00:32:21;;;;;;;8.13;5.47;;;12.60;99.90;;;13.13;nan;101547.66;4988144;28;20653;-71
2022/03/28 00:34:48;;;;;;;8.00;5.70;;;12.60;99.90;;;13.12;nan;101561.69;5008301;28;20641;-72
2022/03/28 00:37:16;;;;;;;10.47;7.27;;;12.60;99.90;;;13.04;nan;101561.31;5002339;28;20625;-72
2022/03/28 00:39:43;;;;;;;10.97;6.80;;;12.50;99.90;;;13.06;nan;101552.47;4992025;28;21181;-71
2022/03/28 00:42:11;;;;;;;13.37;6.73;;;12.50;99.90;;;13.03;nan;101551.81;4975820;28;21063;-68
2022/03/28 00:44:38;;;;;;;11.27;7.00;;;12.50;99.90;;;12.93;nan;101545.50;5010321;28;21015;-71
2022/03/28 00:47:05;;;;;;;10.83;7.10;;;12.40;99.90;;;12.91;nan;101542.97;4993024;28;20628;-71
2022/03/28 00:49:32;;;;;;;11.30;7.47;;;12.40;99.90;;;12.86;nan;101549.47;5011290;28;21013;-69
2022/03/28 00:52:00;;;;;;;15.83;7.63;;;12.30;99.90;;;12.68;nan;101550.69;4987040;28;20725;-71
2022/03/28 00:54:27;;;;;;;10.87;7.10;;;12.20;99.90;;;12.69;nan;101544.53;4975051;28;20618;-71
2022/03/28 00:56:55;;;;;;;12.07;7.33;;;12.10;99.90;;;12.70;nan;101543.56;4992173;28;20621;-71
2022/03/28 00:59:22;;;;;;;11.80;7.13;;;12.10;99.90;;;12.69;nan;101541.91;4976456;28;21007;-71
2022/03/28 01:01:50;;;;;;;10.03;6.23;;;12.20;99.90;;;12.64;nan;101541.34;5004514;28;20678;-71
2022/03/28 01:04:17;;;;;;;10.73;7.33;;;12.10;99.90;;;12.57;nan;101529.59;4993299;28;20634;-71
2022/03/28 01:06:44;;;;;;;12.00;7.70;;;12.10;99.90;;;12.48;nan;101540.72;4991302;28;20641;-73
2022/03/28 01:09:11;;;;;;;11.43;7.80;;;12.00;99.90;;;12.43;nan;101541.84;5011380;28;21149;-71
2022/03/28 01:11:41;;;;;;;12.90;6.40;;;11.90;99.90;;;12.46;nan;101535.53;5011219;28;21264;-74
2022/03/28 01:14:08;;;;;;;11.60;6.80;;;11.90;99.90;;;12.39;nan;101534.28;4977636;28;20634;-71
2022/03/28 01:19:21;;;;;;;9.70;6.27;;;11.80;99.90;;;12.34;nan;101531.13;4990594;28;20878;-69
2022/03/28 01:21:48;;;;;;;10.00;6.37;;;11.80;99.90;;;12.32;nan;101528.63;5005021;28;21256;-71
2022/03/28 01:24:15;;;;;;;10.07;7.07;;;11.80;99.90;;;12.35;nan;101527.59;4976039;28;20980;-72
2022/03/28 01:26:43;;;;;;;14.07;8.30;;;11.80;99.90;;;12.24;nan;101533.50;4992623;28;20638;-71
2022/03/28 01:29:13;;;;;;;13.70;7.73;;;11.80;99.90;;;12.16;nan;101525.28;4976434;28;20637;-72
2022/03/28 01:31:41;;;;;;;11.53;6.83;;;11.70;99.90;;;12.07;nan;101522.44;4991142;28;21019;-72
2022/03/28 01:34:17;;;;;;;11.60;7.57;;;11.60;99.90;;;12.07;nan;101514.59;4980543;28;21197;-71
2022/03/28 01:36:47;;;;;;;13.40;8.00;;;11.50;99.90;;;12.06;nan;101512.91;5006363;28;20646;-68
2022/03/28 01:39:18;;;;;;;13.00;8.20;;;11.50;99.90;;;12.04;nan;101513.00;4971608;28;21177;-71
2022/03/28 01:41:46;;;;;;;11.80;7.17;;;11.50;99.90;;;11.97;nan;101506.47;4971435;28;20681;-72
2022/03/28 01:44:14;;;;;;;11.40;7.73;;;11.40;99.90;;;12.00;nan;101503.69;5014713;28;20632;-70
2022/03/28 01:46:46;;;;;;;16.07;8.60;;;11.50;99.90;;;12.03;nan;101497.41;5012699;28;20613;-68
2022/03/28 01:49:15;;;;;;;14.75;9.27;;;11.40;99.90;;;12.06;nan;101502.44;4975541;28;24980;-71
2022/03/28 01:51:42;;;;;;;13.93;7.77;;;11.50;99.90;;;12.04;nan;101493.84;4976126;28;20789;-72
2022/03/28 01:54:11;;;;;;;15.47;8.80;;;11.50;99.90;;;12.01;nan;101491.44;5010611;28;21212;-71
2022/03/28 01:56:39;;;;;;;13.87;8.00;;;11.50;99.90;;;12.02;nan;101500.97;4995997;28;20616;-71
2022/03/28 01:59:09;;;;;;;13.13;8.13;;;11.50;99.90;;;12.00;nan;101500.22;5012827;28;20640;-71
2022/03/28 02:01:37;;;;;;;12.93;7.80;;;11.40;99.90;;;11.98;nan;101496.88;5006241;28;20685;-71
2022/03/28 02:04:04;;;;;;;10.87;7.87;;;11.50;99.90;;;11.98;nan;101491.63;4981079;28;20631;-71
2022/03/28 02:06:33;;;;;;;12.90;7.53;;;11.40;99.90;;;11.95;nan;101492.66;4989578;28;21302;-72
2022/03/28 02:09:00;;;;;;;12.97;7.40;;;11.30;99.90;;;11.91;nan;101492.97;4995777;28;20617;-72
2022/03/28 02:11:28;;;;;;;12.17;7.13;;;11.40;99.90;;;11.88;nan;101486.16;5001511;28;21810;-71
2022/03/28 02:13:56;;;;;;;12.90;7.07;;;11.30;99.90;;;11.86;nan;101488.00;5007813;28;20625;-72
2022/03/28 02:16:23;;;;;;;13.50;7.63;;;11.30;99.90;;;11.84;nan;101487.28;4993188;28;20663;-72
2022/03/28 02:18:50;;;;;;;12.90;8.10;;;11.30;99.90;;;11.80;nan;101491.03;4978091;28;21207;-72
2022/03/28 02:23:53;;;;;;;14.40;10.00;;;11.20;99.90;;;11.65;nan;101478.88;4890057;26;24543;-73
2022/03/28 02:26:20;;;;;;;13.20;8.80;;;11.10;99.90;;;11.62;nan;101484.31;5012739;28;20633;-73
2022/03/28 02:28:47;;;;;;;14.73;7.30;;;11.10;99.90;;;11.63;nan;101488.59;5010388;28;20641;-68
2022/03/28 02:31:14;;;;;;;11.60;7.47;;;11.10;99.90;;;11.60;nan;101486.19;4973839;28;20645;-73
2022/03/28 02:33:41;;;;;;;11.30;7.50;;;11.10;99.90;;;11.53;nan;101482.28;4993391;28;20638;-71
2022/03/28 02:36:08;;;;;;;12.00;7.50;;;11.00;99.90;;;11.52;nan;101483.22;4986429;28;20639;-72
2022/03/28 02:38:35;;;;;;;12.37;7.03;;;11.00;99.90;;;11.53;nan;101484.88;4955994;28;21097;-71
2022/03/28 02:41:03;;;;;;;11.03;7.30;;;11.00;99.90;;;11.52;nan;101478.00;4982043;28;20696;-71
2022/03/28 02:43:30;;;;;;;9.43;6.97;;;11.00;99.90;;;11.58;nan;101481.03;4973662;28;20651;-71
2022/03/28 02:45:57;;;;;;;12.60;7.60;;;11.00;99.90;;;11.55;nan;101476.03;4989180;28;21047;-73
2022/03/28 02:48:24;;;;;;;18.90;7.07;;;11.00;99.90;;;11.51;nan;101477.16;4993701;28;20640;-71
2022/03/28 02:50:51;;;;;;;13.43;8.33;;;11.00;99.90;;;11.39;nan;101466.63;4974927;28;20631;-72
2022/03/28 02:53:18;;;;;;;13.30;7.00;;;10.90;99.90;;;11.43;nan;101470.72;5553981;23;20687;-73
2022/03/28 02:55:47;;;;;;;11.07;7.30;;;10.90;99.90;;;11.39;nan;101469.25;4995489;28;21452;-72
2022/03/28 02:58:14;;;;;;;11.37;7.57;;;10.90;99.90;;;11.36;nan;101464.19;5011379;28;20651;-72
2022/03/28 03:00:41;;;;;;;12.10;6.63;;;10.80;99.90;;;11.32;nan;101460.94;4994170;28;20625;-73
2022/03/28 03:03:08;;;;;;;10.70;7.07;;;10.80;99.90;;;11.32;nan;101460.94;5011523;28;20649;-71
2022/03/28 03:05:35;;;;;;;9.20;6.50;;;10.80;99.90;;;11.33;nan;101452.16;5011096;28;20634;-72
2022/03/28 03:08:02;;;;;;;11.83;7.67;;;10.80;99.90;;;11.27;nan;101459.53;5012591;28;21021;-73
2022/03/28 03:10:29;;;;;;;11.03;6.80;;;10.80;99.90;;;11.25;nan;101454.41;4993774;28;21125;-72
2022/03/28 03:15:41;;;;;;;10.67;6.47;;;10.70;99.90;;;11.23;nan;101452.81;5207903;22;20682;-70
2022/03/28 03:18:08;;;;;;;9.00;6.00;;;10.70;99.90;;;11.29;nan;101449.81;4963118;28;20625;-71
2022/03/28 03:20:35;;;;;;;11.63;7.33;;;10.80;99.90;;;11.26;nan;101450.03;4992510;28;20626;-71
2022/03/28 03:23:02;;;;;;;11.83;6.90;;;10.70;99.90;;;11.25;nan;101451.78;5008116;28;20661;-71
2022/03/28 03:25:29;;;;;;;11.20;6.63;;;10.70;99.90;;;11.23;nan;101448.44;4994222;28;20640;-71
2022/03/28 03:27:57;;;;;;;11.20;7.33;;;10.70;99.90;;;11.18;nan;101457.50;5011596;28;20625;-70
2022/03/28 03:30:24;;;;;;;13.00;7.70;;;10.70;99.90;;;11.17;nan;101450.59;5009934;28;20637;-71
2022/03/28 03:32:51;;;;;;;9.07;5.77;;;10.70;99.90;;;11.13;nan;101454.31;4994400;28;20665;-70
2022/03/28 03:35:18;;;;;;;11.67;7.40;;;10.60;99.90;;;11.08;nan;101445.91;4992917;28;20617;-70
2022/03/28 03:37:45;;;;;;;9.37;6.37;;;10.60;99.90;;;11.05;nan;101440.91;5009228;28;21224;-72
2022/03/28 03:40:13;;;;;;;11.50;6.10;;;10.50;99.90;;;11.04;nan;101449.66;5002348;28;20638;-72
2022/03/28 03:42:40;;;;;;;10.20;6.50;;;10.50;99.90;;;11.05;nan;101452.19;4963245;28;20680;-71
2022/03/28 03:45:09;;;;;;;12.40;6.60;;;10.60;99.90;;;11.01;nan;101435.00;5011139;28;20624;-71
2022/03/28 03:47:37;;;;;;;10.00;6.90;;;10.60;99.90;;;11.01;nan;101435.00;4999621;28;20648;-72
2022/03/28 03:50:06;;;;;;;10.73;6.33;;;10.50;99.90;;;11.00;nan;101430.72;5003853;28;21031;-72
2022/03/28 03:52:33;;;;;;;12.27;7.00;;;10.50;99.90;;;10.99;nan;101436.06;4985111;28;20668;-70
2022/03/28 03:55:00;;;;;;;10.13;5.97;;;10.50;99.90;;;10.95;nan;101432.78;5012303;28;20629;-70
2022/03/28 03:57:27;;;;;;;12.10;6.77;;;10.40;99.90;;;10.92;nan;101436.41;4995045;28;20633;-70
2022/03/28 03:59:54;;;;;;;10.67;7.20;;;10.40;99.90;;;10.93;nan;101432.03;5011405;28;20648;-68
2022/03/28 04:04:52;;;;;;;9.97;6.17;;;10.40;99.90;;;10.84;nan;101429.97;5009211;28;20704;-73
2022/03/28 04:07:19;;;;;;;11.07;6.60;;;10.30;99.90;;;10.87;nan;101438.47;4993193;28;20641;-71
2022/03/28 04:09:46;;;;;;;9.70;6.17;;;10.40;99.90;;;10.82;nan;101424.84;4977199;28;21222;-76
2022/03/28 04:12:14;;;;;;;12.20;5.97;;;10.40;99.90;;;10.83;nan;101431.75;4973084;28;21216;-72
2022/03/28 04:14:41;;;;;;;9.27;6.37;;;10.40;99.90;;;10.81;nan;101433.63;4991502;28;20645;-72
2022/03/28 04:17:08;;;;;;;8.03;5.93;;;10.30;99.90;;;10.78;nan;101438.16;4991372;28;21206;-71
2022/03/28 04:19:35;;;;;;;9.33;5.80;;;10.30;99.90;;;10.76;nan;101438.28;4974559;28;20619;-72
2022/03/28 04:24:31;;;;;;;8.10;5.17;;;10.30;99.90;;;10.78;nan;101433.78;4989590;28;20665;-72
2022/03/28 04:26:58;;;;;;;11.27;6.50;;;10.30;99.90;;;10.69;nan;101434.34;4972882;28;20626;-71
2022/03/28 04:29:24;;;;;;;7.70;5.57;;;10.20;99.90;;;10.66;nan;101433.69;4973506;28;20857;-73
2022/03/28 04:31:52;;;;;;;11.47;6.93;;;10.20;99.90;;;10.56;nan;101430.78;4973126;28;21245;-72
2022/03/28 04:34:19;;;;;;;11.30;6.00;;;10.10;99.90;;;10.57;nan;101426.41;4990612;28;20986;-74
2022/03/28 04:36:46;;;;;;;10.67;6.30;;;10.10;99.90;;;10.56;nan;101433.38;4988197;28;20638;-71
2022/03/28 04:39:13;;;;;;;10.37;5.80;;;10.10;99.90;;;10.54;nan;101434.44;4991195;28;20638;-71
2022/03/28 04:41:42;;;;;;;6.23;4.60;;;10.10;99.90;;;10.58;nan;101443.75;4989707;28;20705;-72
2022/03/28 04:44:09;;;;;;;7.70;4.53;;;10.10;99.90;;;10.49;nan;101439.06;4991218;28;20645;-71
2022/03/28 04:46:36;;;;;;;7.77;5.37;;;10.00;99.90;;;10.42;nan;101430.75;4973435;28;20629;-71
2022/03/28 04:49:03;;;;;;;19.70;6.97;;;10.00;99.90;;;10.44;nan;101435.88;4971676;28;21169;-73
2022/03/28 04:51:30;;;;;;;10.10;5.57;;;10.00;99.90;;;10.48;nan;101437.38;4990183;28;20649;-72
2022/03/28 04:53:57;;;;;;;6.33;4.77;;;10.10;99.90;;;10.39;nan;101433.53;4958641;28;20635;-71
2022/03/28 04:56:24;;;;;;;9.17;4.77;;;10.00;99.90;;;10.38;nan;101434.47;4971217;28;20689;-70
2022/03/28 04:58:51;;;;;;;9.67;5.10;;;9.90;99.90;;;10.26;nan;101429.13;4965317;28;20638;-71
2022/03/28 05:01:18;;;;;;;;;;;9.80;99.90;;;10.16;nan;101431.41;4987958;28;20520;-72
2022/03/28 05:03:45;;;;;;;15.80;8.85;;;9.70;99.90;;;10.09;nan;101427.47;4989898;28;20754;-71
2022/03/28 05:06:12;;;;;;;14.50;9.47;;;9.60;99.90;;;10.01;nan;101430.50;4967851;28;24460;-72
2022/03/28 05:08:39;;;;;;;15.93;9.80;;;9.50;99.90;;;9.96;nan;101431.69;4956993;28;24434;-71
2022/03/28 05:11:06;;;;;;;17.80;10.07;;;9.50;99.90;;;9.90;nan;101437.28;4977145;28;24575;-70
2022/03/28 05:13:33;;;;;;;17.70;10.60;;;9.50;99.90;;;9.89;nan;101420.78;4992193;28;24584;-71
2022/03/28 05:16:00;;;;;;;11.50;7.37;;;9.50;99.90;;;9.93;nan;101422.28;4993258;28;20723;-69
2022/03/28 05:18:27;;;;;;;10.03;6.07;;;9.50;99.90;;;10.03;nan;101431.25;4995097;28;20642;-71
2022/03/28 05:20:54;;;;;;;12.30;6.90;;;9.60;99.90;;;10.17;nan;101430.50;4959162;28;20692;-71
2022/03/28 05:23:21;;;;;;;19.83;7.17;;;9.70;99.90;;;10.22;nan;101436.31;4994254;28;20674;-71
2022/03/28 05:25:48;;;;;;;11.70;5.83;;;9.80;99.90;;;10.31;nan;101443.56;4992414;28;20642;-69
2022/03/28 05:28:15;;;;;;;10.80;6.50;;;9.80;99.90;;;10.23;nan;101440.56;4994007;28;20634;-72
2022/03/28 05:30:42;;;;;;;12.07;6.37;;;9.80;99.90;;;10.28;nan;101449.00;4984888;28;20639;-72
2022/03/28 05:33:09;;;;;;;12.07;6.97;;;9.90;99.90;;;10.36;nan;101451.13;4990453;28;20732;-71
2022/03/28 05:35:38;;;;;;;10.10;7.00;;;9.90;99.90;;;10.50;nan;101452.00;4976467;28;20638;-73
2022/03/28 05:38:05;;;;;;;11.27;6.57;;;10.10;99.90;;;10.65;nan;101453.72;4992896;28;20646;-71
2022/03/28 05:40:32;;;;;;;8.33;6.43;;;10.40;99.90;;;10.87;nan;101451.53;4975869;28;20649;-72
2022/03/28 05:42:59;;;;;;;9.43;6.50;;;10.70;99.90;;;11.17;nan;101454.03;4992496;28;20685;-72
2022/03/28 05:45:27;;;;;;;11.33;6.60;;;11.10;99.90;;;11.45;nan;101445.34;4956312;28;20627;-74
2022/03/28 05:47:54;;;;;;;12.60;6.90;;;11.40;99.90;;;11.80;nan;101446.56;4987748;28;20642;-70
2022/03/28 05:50:21;;;;;;;11.80;6.60;;;11.90;99.90;;;12.15;nan;101449.53;4993412;28;20717;-74
2022/03/28 05:52:48;;;;;;;9.20;6.70;;;12.30;99.90;;;12.44;nan;101451.91;4991743;28;21279;-71
2022/03/28 05:55:16;;;;;;;11.37;6.73;;;12.60;99.90;;;12.78;nan;101445.22;4975476;28;21005;-68
2022/03/28 05:57:43;;;;;;;10.70;6.47;;;13.00;99.90;;;13.13;nan;101451.53;4992754;28;20688;-71
2022/03/28 06:00:13;;;;;;;10.83;6.70;;;13.40;99.90;;;13.50;nan;101447.13;4975907;28;20630;-71
2022/03/28 06:02:43;;;;;;;15.53;6.20;;;13.80;99.90;;;13.95;nan;101449.09;4959648;28;20678;-72
2022/03/28 06:05:12;;;;;;;16.07;7.93;;;14.30;99.90;;;14.39;nan;101458.13;4993451;28;21170;-72
2022/03/28 06:07:41;;;;;;;13.13;7.03;;;14.70;99.90;;;14.83;nan;101454.75;4974420;28;20641;-76
2022/03/28 06:10:08;;;;;;;10.80;6.87;;;15.20;99.90;;;15.26;nan;101453.94;4992386;28;20622;-73
2022/03/28 06:12:35;;;;;;;17.23;7.30;;;15.70;99.90;;;15.76;nan;101454.41;4974823;28;20658;-73
2022/03/28 06:15:03;;;;;;;14.40;6.90;;;16.20;99.90;;;16.26;nan;101454.56;4993703;28;20610;-72
2022/03/28 06:17:30;;;;;;;12.27;7.00;;;16.70;99.90;;;16.75;100.00;101451.31;4992769;28;20631;-72
2022/03/28 06:19:57;;;;;;;12.27;7.60;;;17.20;98.30;;;-141.50;100.00;62695.63;4992068;28;20697;-74
2022/03/28 06:22:23;;;;;;;14.60;8.40;;;17.80;96.60;;;-141.50;100.00;62695.63;4991316;28;20686;-75
2022/03/28 06:24:50;;;;;;;18.97;8.40;;;18.40;94.60;;;-141.50;100.00;62695.63;4991229;28;20670;-75
2022/03/28 06:27:23;;;;;;;17.67;8.27;;;18.90;92.80;;;-141.50;100.00;62695.63;4977551;28;20711;-72
2022/03/28 06:29:52;;;;;;;15.57;8.30;;;19.50;91.10;;;-141.50;100.00;62695.63;5003050;28;20634;-72
2022/03/28 06:32:19;;;;;;;14.40;7.90;;;20.00;88.20;;;-141.50;100.00;62695.63;4968268;28;20662;-73
2022/03/28 06:34:48;;;;;;;13.33;7.70;;;20.60;84.00;;;-141.50;100.00;62695.63;4957918;28;20622;-70
2022/03/28 06:37:16;;;;;;;14.43;8.03;;;21.20;79.80;;;-141.50;100.00;62695.63;4972876;28;20652;-73
2022/03/28 06:39:43;;;;;;;12.80;7.60;;;21.70;76.10;;;-141.50;100.00;62695.63;4989839;28;20646;-73
2022/03/28 06:42:10;;;;;;;20.80;9.60;;;22.30;72.80;;;-141.50;100.00;62695.63;4971061;28;20671;-69
2022/03/28 06:44:37;;;;;;;16.70;9.13;;;22.80;69.90;;;-141.50;100.00;62695.63;4957588;28;21214;-73
2022/03/28 06:47:04;;;;;;;16.27;11.20;;;23.40;66.80;;;-141.50;100.00;62695.63;4976641;28;20638;-77
2022/03/28 06:49:32;;;;;;;14.90;8.90;;;24.00;64.20;;;-141.50;100.00;62695.63;4987264;28;20634;-73
2022/03/28 06:51:59;;;;;;;18.30;9.53;;;24.60;61.90;;;-141.50;100.00;62695.63;4955862;28;20749;-73
2022/03/28 06:54:26;;;;;;;14.67;9.90;;;24.90;59.90;;;-141.50;100.00;62695.63;4986757;28;20623;-76
2022/03/28 06:56:53;;;;;;;19.30;11.10;;;25.30;58.50;;;-141.50;100.00;62695.63;4991864;28;20628;-73
2022/03/28 06:59:22;;;;;;;17.33;10.93;;;25.70;57.30;;;-141.50;100.00;62695.63;4974270;28;20624;-73
2022/03/28 07:01:50;;;;;;;16.40;10.50;;;26.10;56.40;;;-141.50;100.00;62695.63;4975072;28;20653;-75
2022/03/28 07:04:18;;;;;;;15.83;10.83;;;26.40;55.20;;;-141.50;100.00;62695.63;4974573;28;20603;-73
2022/03/28 07:06:45;;;;;;;15.70;10.53;;;26.80;53.90;;;-141.50;100.00;62695.63;4972643;28;20638;-73
2022/03/28 07:09:12;;;;;;;15.47;9.80;;;26.80;54.00;;;-141.50;100.00;62695.63;4991608;28;20641;-73
2022/03/28 07:11:39;;;;;;;15.60;9.50;;;26.90;52.70;;;-141.50;100.00;62695.63;4991459;28;20634;-74
2022/03/28 07:14:07;;;;;;;14.67;9.20;;;27.10;52.30;;;-141.50;100.00;62695.63;4982303;28;20641;-73
2022/03/28 07:16:35;;;;;;;15.33;10.20;;;27.40;51.80;;;-141.50;100.00;62695.63;4974376;28;20624;-73
2022/03/28 07:19:04;;;;;;;16.57;10.83;;;27.70;51.60;;;-141.50;100.00;62695.63;4989379;28;20630;-73
2022/03/28 07:21:31;;;;;;;17.23;10.23;;;28.00;50.90;;;-141.50;100.00;62695.63;4973651;28;20650;-73
2022/03/28 07:23:59;;;;;;;16.63;9.40;;;27.90;50.00;;;-141.50;100.00;62695.63;4957044;28;20666;-74
2022/03/28 07:26:26;;;;;;;12.23;8.93;;;27.90;50.20;;;-141.50;100.00;62695.63;4991279;28;20642;-73
2022/03/28 07:28:57;;;;;;;12.23;9.23;;;28.10;50.00;;;-141.50;100.00;62695.63;4990948;28;20644;-72
2022/03/28 07:31:25;;;;;;;12.37;10.03;;;28.20;49.70;;;-141.50;100.00;62695.63;4974169;28;20737;-73
2022/03/28 07:33:52;;;;;;;15.20;10.20;;;27.80;49.80;;;-141.50;100.00;62695.63;4974293;28;20629;-74
2022/03/28 07:36:19;;;;;;;14.77;10.03;;;28.00;49.90;;;-141.50;100.00;62695.63;4984686;28;20649;-71
2022/03/28 07:38:46;;;;;;;11.40;8.33;;;28.50;49.40;;;-141.50;100.00;62695.63;4973589;28;21076;-74
2022/03/28 07:41:14;;;;;;;12.60;9.50;;;28.80;48.60;;;-141.50;100.00;62695.63;4940714;28;20677;-75
2022/03/28 07:43:41;;;;;;;12.50;9.90;;;28.90;48.10;;;-141.50;100.00;62695.63;4973514;28;20662;-73
2022/03/28 07:46:10;;;;;;;14.80;9.50;;;28.70;48.20;;;-141.50;100.00;62695.63;4971153;28;20649;-76
2022/03/28 07:48:37;;;;;;;12.00;9.77;;;28.70;48.30;;;-141.50;100.00;62695.63;4956699;28;20989;-67
2022/03/28 07:51:04;;;;;;;13.60;9.90;;;28.80;48.20;;;-141.50;100.00;62695.63;4988833;28;20644;-67
2022/03/28 07:53:32;;;;;;;11.13;9.33;;;28.80;48.10;;;-141.50;100.00;62695.63;4991354;28;21086;-67
2022/03/28 07:55:59;;;;;;;13.93;9.83;;;28.60;48.10;;;-141.50;100.00;62695.63;4988838;28;20649;-68
2022/03/28 07:58:26;;;;;;;12.90;9.63;;;28.40;48.20;;;-141.50;100.00;62695.63;4989847;28;20718;-68
2022/03/28 08:00:53;;;;;;;12.83;10.27;;;28.20;48.40;;;-141.50;100.00;62695.63;4989839;28;20638;-67
2022/03/28 08:03:20;;;;;;;14.87;10.60;;;28.10;48.40;;;-141.50;100.00;62695.63;4988747;28;20677;-68
2022/03/28 08:05:47;;;;;;;12.13;9.20;;;28.20;48.60;;;-141.50;100.00;62695.63;4984203;28;20972;-67
2022/03/28 08:08:14;;;;;;;13.97;10.70;;;28.30;48.30;;;-141.50;100.00;62695.63;4978939;28;20635;-67
2022/03/28 08:10:41;;;;;;;15.57;10.60;;;27.90;48.40;;;28.07;nan;101404.28;4986556;28;20652;-67
2022/03/28 08:13:09;;;;;;;13.87;10.77;;;28.10;48.50;;;28.49;nan;101409.25;4972365;28;20638;-67
2022/03/28 08:15:36;;;;;;;11.53;10.07;;;28.60;48.10;;;28.65;nan;101406.13;4988634;28;20622;-66
2022/03/28 08:18:03;;;;;;;13.83;10.23;;;28.70;47.80;;;29.57;nan;101403.13;4974523;28;20619;-65
2022/03/28 08:20:30;;;;;;;11.30;8.60;;;29.60;47.10;;;30.34;nan;101400.13;4989429;28;20645;-67
2022/03/28 08:22:59;;;;;;;10.33;9.10;;;30.40;46.10;;;31.00;nan;101394.88;4972120;28;20678;-67
2022/03/28 08:25:27;;;;;;;16.30;8.20;;;31.10;45.00;;;31.31;nan;101398.22;4989092;28;20645;-67
2022/03/28 08:27:54;;;;;;;11.07;8.80;;;31.40;44.40;;;30.33;nan;101388.53;4989295;28;20618;-67
2022/03/28 08:30:21;;;;;;;10.63;8.50;;;30.80;44.30;;;30.91;nan;101390.84;4988969;28;21260;-67
2022/03/28 08:32:48;;;;;;;10.57;9.00;;;31.00;44.20;;;30.53;nan;101386.47;4988410;28;20666;-67
2022/03/28 08:35:16;;;;;;;13.27;9.00;;;31.00;44.00;;;31.09;nan;101382.75;4989984;28;20634;-64
2022/03/28 08:37:44;;;;;;;14.37;9.17;;;31.80;43.40;;;31.87;nan;101380.81;4969204;28;20982;-67
2022/03/28 08:40:14;;;;;;;10.13;8.97;;;32.50;42.70;;;30.33;nan;101376.91;4988157;28;20635;-67
2022/03/28 08:42:41;;;;;;;12.83;8.87;;;32.80;42.40;;;31.24;nan;101386.69;4974307;28;20661;-67
2022/03/28 08:45:11;;;;;;;10.23;9.23;;;32.90;41.80;;;32.04;nan;101376.44;4991623;28;20622;-67
2022/03/28 08:47:42;;;;;;;9.67;8.67;;;33.30;41.40;;;32.05;nan;101383.50;4991094;28;20630;-67
2022/03/28 08:50:28;;;;;;;10.73;8.47;;;33.20;41.10;;;32.42;nan;101376.78;4975549;28;20594;-67
2022/03/28 08:52:56;;;;;;;15.83;8.73;;;33.90;40.70;;;32.62;nan;101376.47;4982407;28;20673;-67
2022/03/28 08:55:24;;;;;;;13.93;9.03;;;34.20;40.90;;;33.56;nan;101370.56;4972668;28;20622;-67
2022/03/28 08:57:51;;;;;;;8.63;7.83;;;35.30;39.50;;;34.67;nan;101378.56;4989242;28;20622;-67
2022/03/28 09:00:18;;;;;;;12.93;8.93;;;36.50;38.70;;;35.56;nan;101373.69;4988908;28;20638;-68
2022/03/28 09:02:47;;;;;;;10.07;9.13;;;37.70;37.70;;;36.07;nan;101378.50;4972315;28;20662;-67
2022/03/28 09:05:17;;;;;;;11.33;9.67;;;38.60;36.60;;;36.53;nan;101371.47;4972209;28;21020;-68
2022/03/28 09:07:46;;;;;;;9.00;8.10;;;39.20;36.80;;;37.38;nan;101367.47;4985189;28;20649;-67
2022/03/28 09:10:18;;;;;;;10.70;9.60;;;39.90;35.50;;;38.48;nan;101372.09;4985452;28;20611;-67
2022/03/28 09:13:10;;;;;;;10.37;9.30;;;41.20;34.60;;;39.00;nan;101361.50;4987300;28;20666;-67
2022/03/28 09:16:00;;;;;;;12.43;8.47;;;42.00;33.70;;;39.36;nan;101368.41;4989453;28;21186;-67
2022/03/28 09:18:34;;;;;;;11.60;9.57;;;42.60;33.00;;;38.85;nan;101366.25;4989010;28;20646;-67
2022/03/28 09:21:05;;;;;;;11.93;8.40;;;42.40;32.90;;;39.03;nan;101355.50;4989558;28;20974;-65
2022/03/28 09:23:37;;;;;;;9.17;8.27;;;42.50;32.80;;;39.95;nan;101359.22;4987260;28;20670;-69
2022/03/28 09:26:14;;;;;;;9.70;8.90;;;43.10;32.70;;;40.61;nan;101353.91;4990036;28;21009;-70
2022/03/28 09:28:52;;;;;;;9.93;9.03;;;43.80;32.60;;;41.03;nan;101350.38;4988945;28;20634;-69
2022/03/28 09:31:33;;;;;;;10.27;9.27;;;44.40;32.10;;;40.71;nan;101338.19;4988864;28;20646;-72
2022/03/28 09:34:18;;;;;;;10.20;9.20;;;44.20;31.90;;;40.07;nan;101332.34;4970351;28;20666;-67
2022/03/28 09:36:57;;;;;;;9.80;8.90;;;43.50;31.80;;;38.30;nan;101331.78;4970969;28;20619;-67
2022/03/28 09:39:28;;;;;;;13.10;9.00;;;42.30;31.90;;;38.99;nan;101334.50;4988616;28;20626;-67
2022/03/28 09:42:07;;;;;;;10.00;9.10;;;42.20;32.20;;;39.31;nan;101327.53;4988539;28;20646;-67
2022/03/28 09:44:44;;;;;;;9.90;9.00;;;42.70;31.70;;;39.73;nan;101323.38;4988571;28;20666;-67
2022/03/28 09:47:14;;;;;;;10.80;9.70;;;43.00;31.80;;;39.35;nan;101317.66;4989878;28;20606;-67
2022/03/28 09:49:43;;;;;;;11.10;9.07;;;43.00;31.60;;;40.11;nan;101308.78;4977747;28;20639;-67
2022/03/28 09:52:15;;;;;;;10.17;9.27;;;43.40;31.60;;;40.76;nan;101316.22;4983622;28;20658;-65
2022/03/28 09:54:47;;;;;;;10.60;9.60;;;44.10;31.10;;;40.81;nan;101307.94;4992458;28;20638;-67
2022/03/28 09:57:26;;;;;;;10.70;9.73;;;44.30;30.80;;;40.76;nan;101302.53;4992091;28;21060;-67
2022/03/28 10:00:14;;;;;;;11.60;9.17;;;44.50;30.70;;;39.56;nan;101290.19;4993090;28;21194;-68
2022/03/28 10:02:42;;;;;;;11.60;9.70;;;43.70;30.80;;;39.18;nan;101298.13;4990215;28;20676;-67
2022/03/28 10:05:10;;;;;;;13.07;10.70;;;42.90;30.90;;;39.74;nan;101293.00;4990187;28;20662;-67
2022/03/28 10:07:37;;;;;;;10.90;9.80;;;42.80;31.20;;;40.20;nan;101274.25;4984712;28;20627;-69
2022/03/28 10:10:06;;;;;;;9.40;8.50;;;43.40;30.80;;;40.16;nan;101284.16;4983382;28;21108;-67
2022/03/28 10:12:34;;;;;;;11.37;8.77;;;43.80;30.60;;;40.31;nan;101273.03;4992147;28;20658;-67
2022/03/28 10:15:01;;;;;;;10.03;9.00;;;43.90;30.30;;;39.79;nan;101271.13;4989524;28;20637;-69
2022/03/28 10:17:32;;;;;;;12.40;9.93;;;43.10;30.50;;;41.18;nan;101268.00;4992164;28;20652;-65
2022/03/28 10:20:00;;;;;;;10.60;9.60;;;44.20;30.40;;;39.46;nan;101269.25;4993864;28;20630;-65
2022/03/28 10:22:48;;;;;;;10.60;9.37;;;43.70;29.90;;;41.24;nan;101261.34;4984895;28;20670;-65
2022/03/28 10:25:19;;;;;;;10.57;9.57;;;44.40;29.90;;;41.46;nan;101256.88;4976772;28;20625;-64
2022/03/28 10:27:47;;;;;;;11.37;9.10;;;44.80;29.90;;;39.18;nan;101259.91;4976456;28;20630;-65
2022/03/28 10:30:27;;;;;;;10.50;9.50;;;44.20;29.60;;;38.63;nan;101255.56;4976766;28;20626;-67
2022/03/28 10:33:14;;;;;;;12.20;9.77;;;42.90;29.80;;;36.06;nan;101243.72;4993518;28;20642;-67